Time;durP1;ratioP1;P1;durP2;ratioP2;P2;SDS_P1;SDS_P2;PMS_P1;PMS_P2;Temp;Humidity;BMP_temperature;BMP_pressure;BME280_temperature;BME280_humidity;BME280_pressure;Samples;Min_cycle;Max_cycle;Signal;HPM_P1;HPM_P2
2023/06/13 00:01:50;;;;;;;23.38;15.02;;;;;;;;;;5054768;28;20146;-56
2023/06/13 00:04:23;;;;;;;20.58;14.80;;;;;;;;;;5053579;28;20093;-56
2023/06/13 00:06:49;;;;;;;20.23;14.63;;;;;;;;;;5054655;28;20029;-58
2023/06/13 00:09:17;;;;;;;19.55;14.45;;;;;;;;;;5053299;28;20055;-58
2023/06/13 00:11:43;;;;;;;28.60;15.80;;;;;;;;;;5054554;28;20025;-59
2023/06/13 00:14:10;;;;;;;19.13;14.00;;;;;;;;;;5052260;28;20272;-56
2023/06/13 00:16:38;;;;;;;19.10;14.77;;;;;;;;;;5054531;28;20025;-58
2023/06/13 00:19:04;;;;;;;19.83;14.73;;;;;;;;;;5054370;28;20036;-59
2023/06/13 00:21:32;;;;;;;19.58;14.65;;;;;;;;;;5054327;28;20445;-54
2023/06/13 00:23:58;;;;;;;20.02;14.60;;;;;;;;;;5053744;28;20017;-58
2023/06/13 00:26:24;;;;;;;20.80;14.68;;;;;;;;;;5054143;28;20044;-57
2023/06/13 00:28:51;;;;;;;20.42;15.18;;;;;;;;;;5053857;28;20021;-58
2023/06/13 00:31:17;;;;;;;19.85;15.30;;;;;;;;;;5063395;28;20111;-60
2023/06/13 00:33:44;;;;;;;19.00;15.10;;;;;;;;;;5062927;28;20020;-58
2023/06/13 00:36:16;;;;;;;19.27;14.68;;;;;;;;;;5061518;28;20025;-57
2023/06/13 00:38:43;;;;;;;18.58;15.52;;;;;;;;;;5062529;28;20496;-58
2023/06/13 00:41:09;;;;;;;18.90;14.63;;;;;;;;;;5068128;28;20047;-59
2023/06/13 00:43:35;;;;;;;21.15;15.20;;;;;;;;;;5073732;28;20104;-58
2023/06/13 00:46:02;;;;;;;19.80;15.23;;;;;;;;;;5071943;28;20392;-59
2023/06/13 00:48:28;;;;;;;21.55;16.63;;;;;;;;;;5073988;28;20035;-56
2023/06/13 00:50:54;;;;;;;18.67;15.05;;;;;;;;;;5074035;28;20031;-55
2023/06/13 00:53:21;;;;;;;21.17;15.30;;;;;;;;;;5073755;28;20039;-54
2023/06/13 00:55:48;;;;;;;18.95;15.05;;;;;;;;;;5071415;28;20036;-55
2023/06/13 00:58:14;;;;;;;18.92;15.18;;;;;;;;;;5073715;28;20025;-57
2023/06/13 01:00:43;;;;;;;18.73;14.95;;;;;;;;;;5072290;28;20507;-57
2023/06/13 01:03:15;;;;;;;20.75;14.98;;;;;;;;;;5073418;28;20067;-57
2023/06/13 01:05:45;;;;;;;20.08;14.48;;;;;;;;;;5059186;23;20049;-59
2023/06/13 01:08:13;;;;;;;18.58;15.13;;;;;;;;;;5024787;28;20490;-62
2023/06/13 01:10:42;;;;;;;;;;;;;;;;;;5016973;28;20022;-62
2023/06/13 01:13:15;;;;;;;19.27;15.20;;;;;;;;;;5033270;28;19984;-61
2023/06/13 01:16:07;;;;;;;20.30;14.77;;;;;;;;;;5014666;28;20105;-59
2023/06/13 01:18:35;;;;;;;19.33;15.63;;;;;;;;;;5011570;28;20042;-57
2023/06/13 01:21:02;;;;;;;19.50;15.57;;;;;;;;;;5016175;28;20506;-59
2023/06/13 01:23:37;;;;;;;19.70;14.90;;;;;;;;;;5017067;28;20022;-60
2023/06/13 01:26:08;;;;;;;19.63;14.57;;;;;;;;;;5016463;28;20038;-59
2023/06/13 01:28:36;;;;;;;21.95;15.88;;;;;;;;;;5017176;28;20116;-60
2023/06/13 01:31:03;;;;;;;20.13;15.23;;;;;;;;;;5016555;28;20033;-61
2023/06/13 01:33:30;;;;;;;22.02;14.43;;;;;;;;;;5014919;28;20363;-61
2023/06/13 01:35:56;;;;;;;18.70;14.75;;;;;;;;;;5013992;28;20164;-60
2023/06/13 01:38:22;;;;;;;21.00;14.73;;;;;;;;;;5015938;28;20045;-59
2023/06/13 01:40:49;;;;;;;23.60;15.15;;;;;;;;;;5014028;28;20057;-61
2023/06/13 01:43:15;;;;;;;19.25;14.50;;;;;;;;;;5015829;28;20084;-61
2023/06/13 01:45:41;;;;;;;32.85;27.38;;;;;;;;;;5014742;28;20022;-59
2023/06/13 01:48:13;;;;;;;21.38;17.85;;;;;;;;;;5016863;28;20044;-61
2023/06/13 01:50:46;;;;;;;27.60;22.85;;;;;;;;;;4977703;28;20114;-59
2023/06/13 01:53:17;;;;;;;23.15;18.30;;;;;;;;;;4977888;28;20117;-62
2023/06/13 01:55:44;;;;;;;27.77;23.20;;;;;;;;;;4976088;28;20038;-62
2023/06/13 01:58:11;;;;;;;23.15;17.05;;;;;;;;;;4976928;28;20033;-61
2023/06/13 02:00:38;;;;;;;18.70;14.30;;;;;;;;;;4976666;28;20488;-61
2023/06/13 02:03:05;;;;;;;19.85;15.43;;;;;;;;;;4982129;28;20034;-55
2023/06/13 02:05:31;;;;;;;19.83;15.35;;;;;;;;;;4997194;28;20119;-59
2023/06/13 02:07:57;;;;;;;20.02;15.05;;;;;;;;;;5007669;28;20053;-61
2023/06/13 02:10:24;;;;;;;19.63;15.15;;;;;;;;;;5015767;28;20057;-60
2023/06/13 02:12:50;;;;;;;20.77;16.33;;;;;;;;;;5015522;28;20026;-59
2023/06/13 02:15:16;;;;;;;19.75;15.55;;;;;;;;;;5013611;28;20041;-60
2023/06/13 02:17:42;;;;;;;20.10;16.08;;;;;;;;;;5015140;28;20512;-59
2023/06/13 02:20:08;;;;;;;22.50;17.35;;;;;;;;;;5014113;28;20448;-62
2023/06/13 02:22:34;;;;;;;20.52;16.02;;;;;;;;;;5015732;28;20033;-62
2023/06/13 02:25:00;;;;;;;18.85;14.63;;;;;;;;;;5012876;28;20022;-62
2023/06/13 02:27:26;;;;;;;18.77;14.57;;;;;;;;;;5014710;28;20018;-62
2023/06/13 02:29:54;;;;;;;20.10;14.77;;;;;;;;;;5015875;28;20036;-62
2023/06/13 02:32:22;;;;;;;18.37;13.93;;;;;;;;;;5015869;28;20251;-60
2023/06/13 02:34:49;;;;;;;20.02;14.73;;;;;;;;;;5014068;28;20073;-61
2023/06/13 02:37:15;;;;;;;18.60;14.63;;;;;;;;;;5015895;28;20034;-65
2023/06/13 02:39:41;;;;;;;19.75;14.57;;;;;;;;;;5014085;28;20038;-62
2023/06/13 02:42:07;;;;;;;19.63;14.57;;;;;;;;;;5014825;28;20039;-62
2023/06/13 02:44:33;;;;;;;21.23;14.77;;;;;;;;;;5013823;28;20022;-62
2023/06/13 02:46:59;;;;;;;19.25;14.90;;;;;;;;;;5014745;28;20084;-60
2023/06/13 02:49:25;;;;;;;20.25;14.90;;;;;;;;;;5014930;28;20028;-62
2023/06/13 02:51:52;;;;;;;18.02;14.38;;;;;;;;;;5014219;28;20030;-60
2023/06/13 02:54:18;;;;;;;19.23;14.68;;;;;;;;;;5012418;28;20469;-62
2023/06/13 02:56:44;;;;;;;19.70;14.13;;;;;;;;;;5014354;28;20030;-61
2023/06/13 02:59:10;;;;;;;19.15;14.25;;;;;;;;;;5014568;28;20030;-63
2023/06/13 03:01:36;;;;;;;18.65;14.50;;;;;;;;;;5015350;28;20557;-62
2023/06/13 03:04:02;;;;;;;18.85;14.35;;;;;;;;;;5006729;28;20030;-59
2023/06/13 03:06:30;;;;;;;20.13;14.38;;;;;;;;;;4993886;28;20034;-62
2023/06/13 03:08:58;;;;;;;18.40;13.80;;;;;;;;;;4994091;28;20082;-62
2023/06/13 03:11:25;;;;;;;18.93;14.30;;;;;;;;;;4994538;28;20112;-62
2023/06/13 03:13:51;;;;;;;19.60;14.57;;;;;;;;;;4993948;28;20029;-62
2023/06/13 03:16:17;;;;;;;19.75;14.10;;;;;;;;;;4993307;28;20046;-61
2023/06/13 03:18:43;;;;;;;20.00;14.25;;;;;;;;;;4993223;28;20055;-60
2023/06/13 03:21:09;;;;;;;18.50;14.02;;;;;;;;;;4996886;28;20030;-60
2023/06/13 03:23:35;;;;;;;20.38;15.23;;;;;;;;;;4998224;28;20078;-61
2023/06/13 03:26:03;;;;;;;20.42;14.50;;;;;;;;;;4998106;28;20387;-60
2023/06/13 03:28:29;;;;;;;20.65;15.00;;;;;;;;;;4998578;28;20487;-61
2023/06/13 03:30:57;;;;;;;18.55;13.90;;;;;;;;;;4998459;28;20069;-62
2023/06/13 03:33:23;;;;;;;21.20;14.07;;;;;;;;;;4999171;28;20027;-60
2023/06/13 03:35:50;;;;;;;19.98;15.02;;;;;;;;;;4998116;28;20018;-60
2023/06/13 03:38:16;;;;;;;19.23;14.35;;;;;;;;;;4996989;28;20022;-61
2023/06/13 03:40:42;;;;;;;20.23;14.30;;;;;;;;;;4996691;28;20063;-61
2023/06/13 03:43:08;;;;;;;19.88;14.93;;;;;;;;;;4998340;28;20156;-62
2023/06/13 03:45:34;;;;;;;18.88;13.98;;;;;;;;;;4996344;28;20129;-61
2023/06/13 03:48:00;;;;;;;20.15;14.35;;;;;;;;;;4998316;28;20019;-62
2023/06/13 03:50:26;;;;;;;18.27;13.93;;;;;;;;;;4998249;28;20101;-62
2023/06/13 03:52:52;;;;;;;19.17;14.07;;;;;;;;;;4996469;28;20023;-59
2023/06/13 03:55:18;;;;;;;20.42;14.35;;;;;;;;;;4996851;28;20455;-61
2023/06/13 03:57:45;;;;;;;20.58;14.60;;;;;;;;;;4998374;28;20030;-61
2023/06/13 04:00:12;;;;;;;22.10;14.32;;;;;;;;;;4998377;28;20041;-59
2023/06/13 04:02:38;;;;;;;20.23;13.98;;;;;;;;;;4997104;28;20121;-60
2023/06/13 04:05:06;;;;;;;18.15;13.90;;;;;;;;;;4996071;28;20026;-59
2023/06/13 04:07:33;;;;;;;20.27;13.60;;;;;;;;;;4998201;28;20204;-58
2023/06/13 04:10:00;;;;;;;20.38;14.07;;;;;;;;;;4998290;28;20026;-58
2023/06/13 04:12:26;;;;;;;19.35;14.20;;;;;;;;;;4996578;28;20023;-58
2023/06/13 04:14:52;;;;;;;21.35;14.57;;;;;;;;;;4996708;28;20085;-59
2023/06/13 04:17:18;;;;;;;20.05;15.02;;;;;;;;;;4997588;28;20061;-59
2023/06/13 04:19:44;;;;;;;21.10;14.35;;;;;;;;;;4996141;28;20117;-61
2023/06/13 04:22:11;;;;;;;18.73;14.60;;;;;;;;;;4996527;28;20113;-59
2023/06/13 04:24:38;;;;;;;21.15;14.90;;;;;;;;;;4995391;28;20018;-55
2023/06/13 04:27:04;;;;;;;25.92;15.30;;;;;;;;;;4997356;28;20038;-61
2023/06/13 04:29:33;;;;;;;19.75;15.20;;;;;;;;;;4996152;28;20037;-59
2023/06/13 04:32:02;;;;;;;20.40;15.40;;;;;;;;;;4996787;28;20026;-60
2023/06/13 04:34:29;;;;;;;21.15;15.80;;;;;;;;;;4996591;28;20018;-60
2023/06/13 04:36:55;;;;;;;20.02;15.52;;;;;;;;;;4997670;28;20029;-58
2023/06/13 04:39:23;;;;;;;22.60;15.38;;;;;;;;;;4994355;28;20026;-59
2023/06/13 04:41:55;;;;;;;22.27;14.98;;;;;;;;;;4995964;28;20038;-59
2023/06/13 04:44:25;;;;;;;35.38;16.05;;;;;;;;;;4996359;28;20024;-60
2023/06/13 04:47:01;;;;;;;19.98;15.52;;;;;;;;;;4998050;28;20021;-61
2023/06/13 04:49:27;;;;;;;19.58;14.88;;;;;;;;;;4996483;28;20320;-62
2023/06/13 04:51:54;;;;;;;21.75;14.98;;;;;;;;;;4995594;28;20566;-59
2023/06/13 04:54:21;;;;;;;20.60;15.73;;;;;;;;;;4994750;28;20026;-58
2023/06/13 04:56:47;;;;;;;21.10;15.52;;;;;;;;;;4995100;28;20109;-57
2023/06/13 04:59:13;;;;;;;19.80;15.10;;;;;;;;;;4994818;28;20766;-58
2023/06/13 05:01:40;;;;;;;20.60;14.80;;;;;;;;;;4995088;28;20158;-60
2023/06/13 05:04:06;;;;;;;19.70;14.65;;;;;;;;;;4995152;28;20434;-59
2023/06/13 05:06:34;;;;;;;19.80;15.23;;;;;;;;;;4997643;28;20086;-61
2023/06/13 05:09:00;;;;;;;22.23;15.00;;;;;;;;;;5008619;28;20038;-59
2023/06/13 05:11:26;;;;;;;22.33;15.80;;;;;;;;;;5014128;28;20068;-60
2023/06/13 05:13:52;;;;;;;22.88;16.02;;;;;;;;;;5013177;28;20438;-60
2023/06/13 05:16:18;;;;;;;25.67;16.48;;;;;;;;;;5011476;28;20076;-56
2023/06/13 05:18:44;;;;;;;27.55;16.20;;;;;;;;;;5017819;28;20033;-60
2023/06/13 05:21:16;;;;;;;21.25;15.57;;;;;;;;;;5017800;28;20458;-59
2023/06/13 05:23:43;;;;;;;20.58;15.85;;;;;;;;;;5017094;28;20018;-54
2023/06/13 05:26:10;;;;;;;21.30;15.63;;;;;;;;;;5017522;28;20033;-60
2023/06/13 05:28:36;;;;;;;22.83;16.08;;;;;;;;;;5017807;28;20404;-60
2023/06/13 05:31:02;;;;;;;24.50;15.85;;;;;;;;;;5018008;28;20029;-63
2023/06/13 05:33:28;;;;;;;22.02;15.95;;;;;;;;;;5016845;28;20030;-60
2023/06/13 05:35:54;;;;;;;18.45;15.10;;;;;;;;;;5016212;28;20120;-63
2023/06/13 05:38:20;;;;;;;23.70;15.27;;;;;;;;;;5015391;28;20026;-60
2023/06/13 05:40:46;;;;;;;18.95;14.10;;;;;;;;;;4993116;28;20390;-59
2023/06/13 05:43:12;;;;;;;20.58;15.80;;;;;;;;;;4995409;28;20097;-60
2023/06/13 05:45:38;;;;;;;22.90;15.05;;;;;;;;;;5010283;28;20026;-54
2023/06/13 05:48:05;;;;;;;20.30;14.93;;;;;;;;;;4992122;28;20105;-53
2023/06/13 05:50:31;;;;;;;27.30;22.25;;;;;;;;;;4992139;28;20030;-52
2023/06/13 05:52:57;;;;;;;20.20;15.93;;;;;;;;;;4991788;28;20038;-53
2023/06/13 05:55:23;;;;;;;20.75;15.65;;;;;;;;;;4990428;28;20139;-53
2023/06/13 05:57:50;;;;;;;19.48;15.32;;;;;;;;;;4990670;28;20026;-56
2023/06/13 06:00:17;;;;;;;20.45;15.63;;;;;;;;;;4991665;28;20042;-52
2023/06/13 06:02:47;;;;;;;20.00;15.68;;;;;;;;;;4990951;28;20280;-54
2023/06/13 06:05:13;;;;;;;23.05;15.13;;;;;;;;;;4990504;28;20030;-53
2023/06/13 06:07:40;;;;;;;23.23;16.42;;;;;;;;;;4990133;28;20105;-56
2023/06/13 06:10:07;;;;;;;22.60;17.13;;;;;;;;;;4991278;28;20031;-55
2023/06/13 06:12:33;;;;;;;22.00;15.80;;;;;;;;;;4990130;28;20030;-53
2023/06/13 06:14:59;;;;;;;26.45;17.20;;;;;;;;;;4990200;28;20552;-53
2023/06/13 06:17:24;;;;;;;21.00;15.93;;;;;;;;;;4991127;28;20034;-59
2023/06/13 06:19:50;;;;;;;22.15;16.27;;;;;;;;;;4991020;28;20451;-53
2023/06/13 06:22:16;;;;;;;22.25;15.57;;;;;;;;;;4991115;28;20105;-56
2023/06/13 06:24:43;;;;;;;23.25;15.13;;;;;;;;;;4990067;28;20476;-55
2023/06/13 06:27:11;;;;;;;19.95;15.27;;;;;;;;;;4991048;28;20081;-53
2023/06/13 06:29:37;;;;;;;20.45;15.50;;;;;;;;;;4991042;28;20485;-53
2023/06/13 06:32:03;;;;;;;19.85;14.57;;;;;;;;;;4991004;28;20157;-56
2023/06/13 06:34:29;;;;;;;21.27;15.65;;;;;;;;;;4990447;28;20424;-55
2023/06/13 06:36:55;;;;;;;19.20;14.70;;;;;;;;;;4991162;28;20030;-55
2023/06/13 06:39:22;;;;;;;20.00;15.55;;;;;;;;;;4989438;28;20019;-53
2023/06/13 06:41:48;;;;;;;22.80;15.32;;;;;;;;;;4993195;28;20136;-59
2023/06/13 06:44:14;;;;;;;20.35;15.13;;;;;;;;;;4992836;28;20034;-61
2023/06/13 06:46:40;;;;;;;19.77;15.07;;;;;;;;;;4993195;28;20026;-59
2023/06/13 06:49:07;;;;;;;19.88;16.05;;;;;;;;;;4993545;28;20023;-59
2023/06/13 06:51:33;;;;;;;19.23;15.13;;;;;;;;;;4992784;28;20052;-51
2023/06/13 06:53:59;;;;;;;18.88;15.45;;;;;;;;;;4994201;28;20058;-49
2023/06/13 06:56:25;;;;;;;22.73;15.95;;;;;;;;;;4993026;28;20495;-49
2023/06/13 06:58:51;;;;;;;28.80;16.48;;;;;;;;;;4991406;28;20038;-57
2023/06/13 07:01:18;;;;;;;23.33;15.55;;;;;;;;;;4990972;28;20109;-51
2023/06/13 07:03:45;;;;;;;19.98;15.02;;;;;;;;;;4991196;28;20052;-50
2023/06/13 07:06:13;;;;;;;20.98;16.08;;;;;;;;;;5038068;23;20098;-56
2023/06/13 07:08:39;;;;;;;19.45;15.68;;;;;;;;;;5034469;28;20021;-56
2023/06/13 07:11:06;;;;;;;20.45;15.75;;;;;;;;;;5033463;28;20782;-55
2023/06/13 07:13:32;;;;;;;18.27;15.23;;;;;;;;;;5033402;28;20025;-57
2023/06/13 07:15:59;;;;;;;20.90;16.63;;;;;;;;;;5030277;28;20030;-56
2023/06/13 07:18:26;;;;;;;19.05;15.40;;;;;;;;;;5028505;28;20030;-57
2023/06/13 07:20:52;;;;;;;20.13;15.57;;;;;;;;;;5027251;28;20398;-57
2023/06/13 07:23:18;;;;;;;22.95;14.77;;;;;;;;;;5026392;28;20505;-57
2023/06/13 07:25:44;;;;;;;21.80;15.25;;;;;;;;;;5025463;28;20049;-56
2023/06/13 07:28:10;;;;;;;17.98;14.43;;;;;;;;;;5022617;28;20025;-55
2023/06/13 07:30:36;;;;;;;19.15;14.93;;;;;;;;;;5031103;28;20033;-56
2023/06/13 07:33:02;;;;;;;18.10;14.50;;;;;;;;;;5030427;28;20112;-57
2023/06/13 07:35:29;;;;;;;20.38;14.63;;;;;;;;;;5012235;28;20650;-55
2023/06/13 07:37:55;;;;;;;19.00;15.48;;;;;;;;;;5030725;28;20109;-55
2023/06/13 07:40:21;;;;;;;21.45;15.80;;;;;;;;;;4999651;28;20037;-56
2023/06/13 07:42:51;;;;;;;20.95;15.25;;;;;;;;;;5011401;28;20026;-57
2023/06/13 07:45:17;;;;;;;18.88;14.50;;;;;;;;;;5008964;28;20026;-56
2023/06/13 07:47:43;;;;;;;20.58;14.88;;;;;;;;;;5011222;28;20038;-55
2023/06/13 07:50:09;;;;;;;19.55;15.00;;;;;;;;;;5011329;28;20041;-53
2023/06/13 07:52:35;;;;;;;20.67;15.13;;;;;;;;;;5011189;28;20625;-55
2023/06/13 07:55:02;;;;;;;18.50;14.98;;;;;;;;;;5010386;28;20037;-56
2023/06/13 07:57:28;;;;;;;19.30;15.10;;;;;;;;;;5010769;28;20371;-57
2023/06/13 07:59:55;;;;;;;20.05;15.30;;;;;;;;;;5010525;28;20427;-54
2023/06/13 08:02:21;;;;;;;20.88;15.30;;;;;;;;;;5011296;28;20049;-56
2023/06/13 08:04:47;;;;;;;20.88;15.75;;;;;;;;;;5010052;28;20026;-56
2023/06/13 08:07:13;;;;;;;19.67;15.50;;;;;;;;;;5013807;28;20513;-56
2023/06/13 08:09:39;;;;;;;20.92;15.05;;;;;;;;;;5014740;28;20034;-55
2023/06/13 08:12:06;;;;;;;19.60;15.85;;;;;;;;;;5014572;28;20026;-55
2023/06/13 08:14:32;;;;;;;20.00;15.25;;;;;;;;;;5013846;28;20033;-53
2023/06/13 08:16:58;;;;;;;19.73;15.50;;;;;;;;;;5014536;28;20049;-57
2023/06/13 08:19:24;;;;;;;20.13;14.68;;;;;;;;;;5013043;28;20490;-54
2023/06/13 08:21:50;;;;;;;19.10;15.25;;;;;;;;;;5011211;28;20095;-57
2023/06/13 08:24:16;;;;;;;20.35;15.20;;;;;;;;;;5011677;28;20026;-58
2023/06/13 08:26:44;;;;;;;18.00;15.30;;;;;;;;;;5011264;28;20367;-58
2023/06/13 08:29:13;;;;;;;22.45;14.95;;;;;;;;;;5009561;28;20014;-59
2023/06/13 08:31:40;;;;;;;18.70;15.43;;;;;;;;;;5011291;28;20034;-56
2023/06/13 08:34:06;;;;;;;20.80;15.00;;;;;;;;;;5011780;28;20037;-54
2023/06/13 08:36:35;;;;;;;22.15;15.57;;;;;;;;;;5013603;28;20040;-58
2023/06/13 08:39:03;;;;;;;17.95;15.32;;;;;;;;;;5014098;28;20462;-55
2023/06/13 08:41:29;;;;;;;20.20;15.48;;;;;;;;;;5014001;28;20037;-58
2023/06/13 08:43:58;;;;;;;19.95;15.90;;;;;;;;;;5013548;28;20149;-56
2023/06/13 08:46:28;;;;;;;18.80;15.25;;;;;;;;;;5014007;28;20038;-56
2023/06/13 08:48:54;;;;;;;20.33;16.15;;;;;;;;;;5014049;28;20417;-58
2023/06/13 08:51:22;;;;;;;20.05;15.27;;;;;;;;;;5013874;28;20036;-56
2023/06/13 08:53:49;;;;;;;19.00;15.52;;;;;;;;;;5014001;28;20033;-58
2023/06/13 08:56:15;;;;;;;19.10;15.93;;;;;;;;;;5013543;28;20038;-56
2023/06/13 08:58:42;;;;;;;20.27;15.23;;;;;;;;;;5013853;28;20032;-56
2023/06/13 09:01:09;;;;;;;28.27;16.23;;;;;;;;;;5013220;28;20045;-57
2023/06/13 09:03:36;;;;;;;17.23;14.57;;;;;;;;;;5013722;28;20072;-55
2023/06/13 09:06:05;;;;;;;21.48;15.30;;;;;;;;;;5011287;28;20034;-56
2023/06/13 09:08:32;;;;;;;18.52;15.60;;;;;;;;;;5013864;28;20030;-56
2023/06/13 09:10:59;;;;;;;20.60;16.00;;;;;;;;;;5013556;28;20037;-54
2023/06/13 09:13:26;;;;;;;20.15;16.40;;;;;;;;;;5013260;28;20022;-56
2023/06/13 09:15:52;;;;;;;21.20;16.50;;;;;;;;;;5012558;28;20080;-58
2023/06/13 09:18:19;;;;;;;19.88;15.95;;;;;;;;;;5013221;28;20034;-55
2023/06/13 09:20:45;;;;;;;18.65;15.88;;;;;;;;;;5013118;28;20083;-58
2023/06/13 09:23:16;;;;;;;17.95;15.05;;;;;;;;;;5011785;28;20030;-57
2023/06/13 09:25:42;;;;;;;18.42;15.15;;;;;;;;;;5012508;28;20022;-58
2023/06/13 09:28:27;;;;;;;17.65;15.20;;;;;;;;;;5011566;28;20108;-58
2023/06/13 09:30:53;;;;;;;17.98;15.18;;;;;;;;;;5013090;28;20495;-59
2023/06/13 09:33:22;;;;;;;19.65;15.10;;;;;;;;;;5013154;28;20030;-57
2023/06/13 09:35:47;;;;;;;;;;;;;;;;;;5011085;28;20040;-59
2023/06/13 09:38:14;;;;;;;23.20;16.10;;;;;;;;;;5012703;28;19905;-56
2023/06/13 09:40:40;;;;;;;19.55;15.45;;;;;;;;;;5013053;28;20028;-56
2023/06/13 09:43:07;;;;;;;19.88;15.50;;;;;;;;;;5012777;28;20481;-55
2023/06/13 09:45:33;;;;;;;18.20;15.68;;;;;;;;;;5011614;28;20050;-56
2023/06/13 09:47:59;;;;;;;18.15;15.10;;;;;;;;;;5012592;28;20507;-57
2023/06/13 09:50:25;;;;;;;20.65;15.50;;;;;;;;;;5011691;28;20030;-58
2023/06/13 09:52:52;;;;;;;19.40;15.40;;;;;;;;;;5012473;28;20084;-54
2023/06/13 09:55:20;;;;;;;22.35;15.55;;;;;;;;;;5011150;28;20038;-57
2023/06/13 09:57:46;;;;;;;18.35;15.45;;;;;;;;;;5011787;28;20030;-56
2023/06/13 10:00:13;;;;;;;20.65;16.15;;;;;;;;;;5019990;28;20029;-57
2023/06/13 10:02:39;;;;;;;18.00;15.90;;;;;;;;;;5028700;28;20025;-58
2023/06/13 10:05:06;;;;;;;18.98;15.95;;;;;;;;;;5024177;28;20037;-57
2023/06/13 10:07:32;;;;;;;18.40;15.90;;;;;;;;;;5023479;28;20029;-58
2023/06/13 10:09:59;;;;;;;23.58;15.50;;;;;;;;;;5018774;28;20033;-58
2023/06/13 10:12:26;;;;;;;20.40;16.00;;;;;;;;;;5015321;28;20041;-57
2023/06/13 10:14:55;;;;;;;20.05;15.55;;;;;;;;;;5010374;28;20038;-62
2023/06/13 10:17:21;;;;;;;28.20;16.20;;;;;;;;;;5011600;28;20021;-59
2023/06/13 10:19:50;;;;;;;18.00;15.02;;;;;;;;;;5011507;28;20105;-60
2023/06/13 10:22:16;;;;;;;18.98;15.52;;;;;;;;;;5001613;28;20017;-61
2023/06/13 10:24:42;;;;;;;19.05;15.85;;;;;;;;;;5030016;28;20026;-59
2023/06/13 10:27:09;;;;;;;23.25;16.80;;;;;;;;;;5025564;28;20030;-59
2023/06/13 10:29:47;;;;;;;20.45;16.50;;;;;;;;;;5028977;28;20021;-59
2023/06/13 10:32:16;;;;;;;19.88;16.10;;;;;;;;;;5030293;28;20025;-56
2023/06/13 10:35:02;;;;;;;23.88;15.70;;;;;;;;;;5030072;28;20042;-60
2023/06/13 10:37:43;;;;;;;19.05;15.63;;;;;;;;;;5022895;28;20493;-58
2023/06/13 10:40:12;;;;;;;20.85;15.90;;;;;;;;;;5019039;28;20049;-59
2023/06/13 10:42:41;;;;;;;20.42;16.23;;;;;;;;;;5011245;28;20048;-60
2023/06/13 10:45:07;;;;;;;19.02;15.48;;;;;;;;;;5010457;28;20030;-58
2023/06/13 10:47:34;;;;;;;20.02;16.25;;;;;;;;;;5010953;28;20499;-59
2023/06/13 10:50:01;;;;;;;;;;;;;;;;;;5011573;28;20049;-60
2023/06/13 10:52:29;;;;;;;19.15;16.25;;;;;;;;;;5010858;28;19909;-57
2023/06/13 10:54:56;;;;;;;18.67;15.18;;;;;;;;;;5010376;28;20542;-59
2023/06/13 10:57:22;;;;;;;21.33;16.05;;;;;;;;;;5011495;28;20504;-56
2023/06/13 10:59:49;;;;;;;22.77;15.85;;;;;;;;;;5011255;28;20045;-58
2023/06/13 11:02:16;;;;;;;19.25;15.68;;;;;;;;;;5011277;28;20061;-60
2023/06/13 11:04:49;;;;;;;18.92;15.55;;;;;;;;;;5010573;28;20467;-57
2023/06/13 11:07:21;;;;;;;18.90;15.52;;;;;;;;;;5009724;28;20026;-59
2023/06/13 11:10:03;;;;;;;20.02;16.35;;;;;;;;;;5021947;28;20041;-57
2023/06/13 11:12:30;;;;;;;19.88;15.68;;;;;;;;;;5031481;28;20028;-61
2023/06/13 11:15:03;;;;;;;18.73;15.00;;;;;;;;;;5012369;28;20048;-59
2023/06/13 11:17:29;;;;;;;22.42;15.93;;;;;;;;;;5030737;28;20026;-59
2023/06/13 11:19:56;;;;;;;18.88;15.05;;;;;;;;;;5030536;28;20029;-58
2023/06/13 11:22:22;;;;;;;18.98;15.50;;;;;;;;;;5030744;28;20025;-53
2023/06/13 11:24:49;;;;;;;20.35;15.40;;;;;;;;;;5029668;28;20116;-56
2023/06/13 11:27:16;;;;;;;21.30;15.60;;;;;;;;;;5030799;28;20025;-56
2023/06/13 11:29:43;;;;;;;18.42;15.35;;;;;;;;;;5030776;28;20017;-57
2023/06/13 11:32:10;;;;;;;22.50;15.60;;;;;;;;;;5029599;28;20044;-57
2023/06/13 11:34:41;;;;;;;21.25;15.45;;;;;;;;;;5030102;28;20032;-54
2023/06/13 11:37:22;;;;;;;20.95;15.20;;;;;;;;;;5030997;28;20021;-55
2023/06/13 11:39:53;;;;;;;18.30;15.45;;;;;;;;;;5021958;28;20030;-55
2023/06/13 11:42:20;;;;;;;20.50;16.55;;;;;;;;;;5014097;28;20482;-56
2023/06/13 11:44:46;;;;;;;17.88;15.25;;;;;;;;;;5013939;28;20065;-55
2023/06/13 11:47:12;;;;;;;19.98;15.13;;;;;;;;;;5014165;28;20033;-54
2023/06/13 11:49:38;;;;;;;18.45;15.23;;;;;;;;;;4995900;28;20022;-54
2023/06/13 11:52:17;;;;;;;20.52;15.85;;;;;;;;;;5012430;28;20157;-56
2023/06/13 11:54:47;;;;;;;19.70;16.05;;;;;;;;;;5022378;28;20046;-52
2023/06/13 11:57:14;;;;;;;18.77;16.15;;;;;;;;;;5000005;28;20474;-53
2023/06/13 11:59:40;;;;;;;19.37;15.67;;;;;;;;;;4994592;28;20034;-56
2023/06/13 12:02:06;;;;;;;18.33;15.48;;;;;;;;;;5014243;28;20102;-56
2023/06/13 12:04:32;;;;;;;18.10;16.05;;;;;;;;;;5013223;28;20014;-54
2023/06/13 12:07:02;;;;;;;17.88;15.32;;;;;;;;;;5013386;28;20040;-62
2023/06/13 12:09:28;;;;;;;20.00;16.08;;;;;;;;;;5013594;28;20022;-55
2023/06/13 12:11:54;;;;;;;20.10;16.70;;;;;;;;;;5013770;28;20120;-57
2023/06/13 12:14:20;;;;;;;21.75;17.15;;;;;;;;;;5013270;28;20021;-53
2023/06/13 12:16:49;;;;;;;18.83;15.75;;;;;;;;;;5014155;28;20105;-55
2023/06/13 12:19:18;;;;;;;19.58;16.02;;;;;;;;;;5014274;28;20149;-55
2023/06/13 12:21:45;;;;;;;18.73;15.98;;;;;;;;;;5013984;28;20030;-50
2023/06/13 12:24:11;;;;;;;18.48;16.30;;;;;;;;;;5013176;28;20040;-57
2023/06/13 12:26:41;;;;;;;19.83;16.30;;;;;;;;;;5014134;28;20071;-57
2023/06/13 12:29:07;;;;;;;19.38;16.65;;;;;;;;;;4996679;28;20033;-55
2023/06/13 12:31:35;;;;;;;20.00;15.97;;;;;;;;;;5013112;28;20033;-57
2023/06/13 12:34:16;;;;;;;22.73;16.50;;;;;;;;;;5012904;28;20030;-53
2023/06/13 12:36:44;;;;;;;18.50;16.00;;;;;;;;;;5014207;28;20075;-54
2023/06/13 12:39:11;;;;;;;19.10;16.00;;;;;;;;;;5009322;28;20433;-53
2023/06/13 12:41:38;;;;;;;;;;;;;;;;;;4999886;28;20153;-54
2023/06/13 12:44:06;;;;;;;19.33;16.40;;;;;;;;;;4994748;28;19905;-53
2023/06/13 12:46:38;;;;;;;18.75;15.95;;;;;;;;;;5013276;28;20030;-55
2023/06/13 12:49:07;;;;;;;21.63;17.52;;;;;;;;;;5006200;28;20026;-54
2023/06/13 12:51:33;;;;;;;19.65;15.88;;;;;;;;;;4989556;28;20517;-56
2023/06/13 12:54:10;;;;;;;19.27;16.73;;;;;;;;;;5013244;28;20034;-58
2023/06/13 12:56:36;;;;;;;20.77;16.50;;;;;;;;;;5013616;28;20029;-58
2023/06/13 12:59:02;;;;;;;21.70;16.05;;;;;;;;;;5013647;28;20105;-57
2023/06/13 13:01:28;;;;;;;18.50;16.05;;;;;;;;;;5011610;28;20196;-56
2023/06/13 13:03:54;;;;;;;18.15;16.02;;;;;;;;;;5008487;28;20052;-56
2023/06/13 13:06:23;;;;;;;19.33;16.02;;;;;;;;;;5036528;23;20417;-60
2023/06/13 13:08:49;;;;;;;22.25;16.13;;;;;;;;;;5057268;28;20082;-60
2023/06/13 13:11:15;;;;;;;19.48;16.40;;;;;;;;;;5052408;28;20032;-61
2023/06/13 13:13:41;;;;;;;19.88;17.20;;;;;;;;;;5037729;28;20537;-56
2023/06/13 13:16:07;;;;;;;18.80;15.82;;;;;;;;;;5060430;28;20021;-58
2023/06/13 13:18:33;;;;;;;22.90;16.90;;;;;;;;;;5043300;28;20025;-59
2023/06/13 13:21:00;;;;;;;19.27;16.48;;;;;;;;;;5060544;28;20017;-61
2023/06/13 13:23:26;;;;;;;19.77;16.33;;;;;;;;;;5033924;28;20028;-61
2023/06/13 13:25:52;;;;;;;20.85;17.20;;;;;;;;;;5033348;28;20024;-59
2023/06/13 13:28:18;;;;;;;18.92;16.65;;;;;;;;;;5052311;28;20354;-59
2023/06/13 13:30:44;;;;;;;18.63;16.63;;;;;;;;;;5052539;28;20033;-59
2023/06/13 13:33:10;;;;;;;18.90;16.77;;;;;;;;;;5035439;28;20424;-60
2023/06/13 13:35:36;;;;;;;20.92;17.00;;;;;;;;;;5051482;28;20029;-60
2023/06/13 13:38:02;;;;;;;20.77;17.00;;;;;;;;;;5052860;28;20020;-59
2023/06/13 13:40:28;;;;;;;21.17;17.30;;;;;;;;;;5038156;28;20464;-58
2023/06/13 13:42:55;;;;;;;19.75;16.45;;;;;;;;;;5031924;28;20049;-62
2023/06/13 13:45:21;;;;;;;19.00;16.23;;;;;;;;;;5032039;28;20025;-58
2023/06/13 13:47:48;;;;;;;21.08;16.60;;;;;;;;;;5032305;28;20543;-60
2023/06/13 13:50:15;;;;;;;19.90;16.63;;;;;;;;;;5032447;28;20121;-60
2023/06/13 13:52:41;;;;;;;18.17;16.27;;;;;;;;;;5032912;28;20096;-60
2023/06/13 13:55:10;;;;;;;18.60;16.70;;;;;;;;;;5032023;28;20029;-60
2023/06/13 13:57:36;;;;;;;19.58;16.42;;;;;;;;;;5032246;28;20500;-62
2023/06/13 14:00:04;;;;;;;19.77;17.00;;;;;;;;;;5032903;28;20362;-63
2023/06/13 14:02:30;;;;;;;18.17;16.27;;;;;;;;;;5032948;28;20018;-59
2023/06/13 14:04:56;;;;;;;19.77;16.48;;;;;;;;;;5031401;28;20148;-64
2023/06/13 14:07:22;;;;;;;18.90;16.23;;;;;;;;;;5031329;28;20030;-61
2023/06/13 14:09:49;;;;;;;19.15;16.42;;;;;;;;;;5031062;28;20389;-61
2023/06/13 14:12:15;;;;;;;19.00;16.10;;;;;;;;;;5033395;28;20017;-55
2023/06/13 14:14:41;;;;;;;18.58;16.50;;;;;;;;;;5031882;28;20064;-59
2023/06/13 14:17:07;;;;;;;20.27;16.75;;;;;;;;;;5039184;28;20021;-57
2023/06/13 14:19:34;;;;;;;20.70;16.92;;;;;;;;;;5051890;28;20028;-59